Date,TemperatureHighF,TemperatureAvgF,TemperatureLowF,DewpointHighF,DewpointAvgF,DewpointLowF,HumidityHigh,HumidityAvg,HumidityLow,PressureMaxIn,PressureMinIn,WindSpeedMaxMPH,WindSpeedAvgMPH,GustSpeedMaxMPH,PrecipitationSumIn
2014-1-1,41.0,38.5,35.0,35.0,33.9,30.0,92,84,75,0.00,40.00,20,13,29,0.22
2014-1-2,36.0,34.8,34.0,31.0,29.2,28.0,86,80,75,0.00,40.00,17,11,26,0.00
2014-1-3,38.0,37.1,34.0,36.0,33.5,30.0,93,87,83,0.00,40.00,12,7,14,0.00
2014-1-4,43.0,39.0,37.0,35.0,31.5,-99.9,90,78,65,0.00,40.00,29,18,38,0.17
2014-1-5,45.0,43.1,42.0,36.0,34.8,33.0,78,72,65,0.00,40.00,22,14,27,0.01
2014-1-6,42.0,40.0,37.0,36.0,34.0,33.0,89,79,71,0.00,40.00,24,10,29,0.05
2014-1-7,42.0,39.6,37.0,35.0,33.2,31.0,87,78,65,0.00,40.00,17,6,22,0.00
2014-1-8,40.0,36.3,34.0,36.0,33.7,30.0,96,91,75,0.00,40.00,12,5,18,0.06
2014-1-9,35.0,34.0,32.0,33.0,31.2,28.0,93,89,81,0.00,40.00,11,6,14,0.00
2014-1-10,32.0,31.5,29.0,31.0,13.1,-99.9,102,97,91,0.00,40.00,10,5,12,0.10
2014-1-11,30.0,27.8,25.0,29.0,14.3,-99.9,102,86,78,0.00,40.00,26,13,29,0.00
2014-1-12,29.0,26.2,24.0,29.0,-32.6,-99.9,101,95,86,0.00,40.00,26,12,29,0.09
2014-1-13,38.0,32.7,29.0,32.0,14.6,-99.9,102,90,67,0.00,40.00,25,12,31,0.01
2014-1-14,40.0,36.6,31.0,36.0,27.9,-99.9,100,83,62,0.00,40.00,33,15,43,0.13
2014-1-15,45.0,39.5,35.0,37.0,31.6,26.0,86,73,64,0.00,40.00,28,10,34,0.00
2014-1-16,45.0,36.8,34.0,35.0,33.6,33.0,97,89,66,0.00,40.00,15,10,18,0.20
2014-1-17,48.0,43.8,41.0,41.0,37.5,35.0,94,79,59,0.00,40.00,35,22,48,0.60
2014-1-18,42.0,38.2,34.0,36.0,30.4,-99.9,92,76,66,0.00,40.00,23,12,36,0.03
2014-1-19,43.0,38.4,34.0,35.0,31.9,27.0,88,77,61,0.00,40.00,27,13,34,0.06
2014-1-20,47.0,45.5,43.0,38.0,35.3,32.0,82,67,57,0.00,40.00,36,21,48,0.03
2014-1-21,45.0,42.4,37.0,38.0,35.6,33.0,95,76,63,0.00,40.00,22,10,29,0.01
2014-1-22,48.0,42.7,37.0,39.0,36.8,35.0,95,80,65,0.00,40.00,21,10,32,0.11
2014-1-23,50.0,45.6,41.0,40.0,38.8,38.0,93,77,66,0.00,40.00,23,8,26,0.01
2014-1-24,48.0,45.4,40.0,40.0,37.2,34.0,92,73,58,0.00,40.00,22,9,29,0.04
2014-1-25,54.0,47.4,40.0,38.0,27.2,-99.9,93,59,38,0.00,40.00,26,11,33,0.01
2014-1-26,53.0,48.0,43.0,39.0,36.4,30.0,84,65,43,0.00,40.00,33,18,41,0.06
2014-1-27,57.0,49.9,44.0,39.0,32.6,23.0,84,55,27,0.00,40.00,34,22,48,0.07
2014-1-28,45.0,42.9,40.0,36.0,33.6,32.0,83,70,62,0.00,40.00,18,12,23,0.02
2014-1-29,42.0,40.0,38.0,38.0,36.3,35.0,95,86,75,0.00,40.00,17,8,24,0.02
2014-1-30,39.0,36.2,35.0,37.0,34.9,33.0,100,96,89,0.00,40.00,12,4,14,0.00
2014-1-31,35.0,34.3,33.0,33.0,7.3,-99.9,94,85,77,0.00,40.00,17,10,20,0.00
2014-2-1,36.0,32.8,32.0,31.0,-1.2,-99.9,92,83,72,0.00,40.00,12,6,14,0.00
2014-2-2,35.0,33.1,31.0,29.0,25.5,-99.9,87,78,73,0.00,40.00,15,6,16,0.00
2014-2-3,41.0,37.9,34.0,33.0,30.6,28.0,82,75,66,0.00,40.00,14,7,22,0.00
2014-2-4,40.0,38.1,35.0,33.0,28.8,-99.9,85,75,57,0.00,40.00,17,6,19,0.00
2014-2-5,35.0,33.9,32.0,31.0,22.4,-99.9,87,79,66,0.00,40.00,15,8,18,0.00
2014-2-6,37.0,32.1,26.0,31.0,11.3,-99.9,89,75,59,0.00,40.00,34,14,44,0.00
2014-2-7,35.0,28.3,25.0,33.0,-28.7,-99.9,103,81,53,0.00,40.00,44,34,54,0.00
2014-2-8,36.0,32.2,27.0,34.0,26.6,19.0,99,79,69,0.00,40.00,26,16,29,0.00
2014-2-9,27.0,22.5,20.0,19.0,9.6,5.0,69,58,48,0.00,40.00,25,17,30,0.00
2014-2-10,25.0,21.2,19.0,16.0,12.3,7.0,80,68,57,0.00,40.00,30,23,36,0.00
2014-2-11,25.0,22.4,19.0,13.0,-3.0,-99.9,80,61,52,0.00,40.00,17,8,20,0.00
2014-2-12,20.0,15.7,12.0,9.0,-4.6,-99.9,63,53,39,0.00,40.00,20,14,27,0.00
2014-2-13,13.0,10.5,9.0,6.0,1.5,-3.0,81,66,50,0.00,40.00,16,10,23,0.00
2014-2-14,23.0,19.3,13.0,19.0,3.8,-99.9,96,79,61,0.00,40.00,29,14,36,0.02
2014-2-15,25.0,22.0,21.0,22.0,6.0,-99.9,98,83,59,0.00,40.00,19,8,25,0.10
2014-2-16,25.0,22.5,20.0,23.0,10.0,-99.9,98,83,64,0.00,40.00,24,12,27,0.03
2014-2-17,27.0,23.7,22.0,20.0,11.2,-99.9,88,78,68,0.00,40.00,15,8,19,0.00
2014-2-18,27.0,23.4,22.0,23.0,13.6,-99.9,99,86,70,0.00,40.00,18,10,22,0.05
2014-2-19,24.0,22.9,21.0,17.0,-59.1,-99.9,80,27,75,0.00,40.00,21,13,27,0.00
2014-2-20,26.0,23.0,20.0,-99.9,-99.9,-99.9,0,0,100,0.00,40.00,19,12,23,0.00
2014-2-21,31.0,26.5,24.0,-99.9,-99.9,-99.9,0,0,100,0.00,40.00,21,16,25,0.00
2014-2-22,39.0,35.3,30.0,-99.9,-99.9,-99.9,0,0,100,0.00,40.00,20,16,28,0.00
2014-2-23,39.0,36.8,35.0,-99.9,-99.9,-99.9,0,0,100,0.00,40.00,25,18,31,0.00
2014-2-24,38.0,36.8,35.0,-99.9,-99.9,-99.9,0,0,100,0.00,40.00,15,7,21,0.00
2014-2-25,43.0,37.5,33.0,-99.9,-99.9,-99.9,0,0,100,0.00,40.00,35,12,47,0.00
2014-2-26,45.0,42.3,39.0,-99.9,-99.9,-99.9,0,0,100,0.00,40.00,35,13,47,0.00
2014-2-27,47.0,42.9,39.0,-99.9,-99.9,-99.9,0,0,100,0.00,40.00,22,10,27,0.00
2014-2-28,39.0,37.5,35.0,-99.9,-99.9,-99.9,0,0,100,0.00,40.00,17,11,20,0.00
2014-3-1,40.0,35.6,32.0,-99.9,-99.9,-99.9,0,0,100,0.00,40.00,13,6,16,0.00
2014-3-2,36.0,31.7,29.0,-99.9,-99.9,-99.9,0,0,100,0.00,40.00,8,5,11,0.00
2014-3-3,38.0,33.1,30.0,-99.9,-99.9,-99.9,0,0,100,0.00,40.00,10,6,12,0.00
2014-3-4,39.0,36.6,34.0,-99.9,-99.9,-99.9,0,0,100,0.00,40.00,14,7,19,0.00
2014-3-5,36.0,33.2,31.0,-99.9,-99.9,-99.9,0,0,100,0.00,40.00,19,7,24,0.00
2014-3-6,33.0,30.8,28.0,-99.9,-99.9,-99.9,0,0,100,0.00,40.00,23,16,26,0.00
2014-3-7,32.0,28.7,27.0,-99.9,-99.9,-99.9,0,0,100,0.00,40.00,21,16,25,0.00
2014-3-8,31.0,26.8,25.0,-99.9,-99.9,-99.9,0,0,100,0.00,40.00,18,11,22,0.00
2014-3-9,33.0,29.3,25.0,-99.9,-99.9,-99.9,0,0,100,0.00,40.00,14,6,17,0.00
2014-3-10,39.0,35.2,30.0,-99.9,-99.9,-99.9,0,0,100,0.00,40.00,32,19,44,0.00
2014-3-11,40.0,37.5,35.0,-99.9,-99.9,-99.9,0,0,100,0.00,40.00,18,8,22,0.00
2014-3-12,36.0,32.7,29.0,24.0,-94.8,-99.9,78,3,78,0.00,40.00,25,15,31,0.00
2014-3-13,42.0,39.1,36.0,-99.9,-99.9,-99.9,0,0,100,0.00,40.00,32,13,46,0.00
2014-3-14,42.0,29.9,18.0,-99.9,-99.9,-99.9,0,0,100,0.00,40.00,38,22,51,0.00
2014-3-15,24.0,20.0,18.0,-99.9,-99.9,-99.9,0,0,100,0.00,40.00,16,8,22,0.00
2014-3-16,36.0,25.5,17.0,-99.9,-99.9,-99.9,0,0,100,0.00,40.00,25,14,30,0.00
2014-3-17,38.0,35.1,33.0,-99.9,-99.9,-99.9,0,0,100,0.00,40.00,9,5,15,0.00
2014-3-18,36.0,33.0,31.0,-99.9,-99.9,-99.9,0,0,100,0.00,40.00,7,4,10,0.00
2014-3-19,39.0,35.6,32.0,-99.9,-99.9,-99.9,0,0,100,0.00,40.00,16,8,20,0.00
2014-3-20,38.0,34.4,29.0,-99.9,-99.9,-99.9,0,0,100,0.00,40.00,22,17,26,0.00
2014-3-21,42.0,34.7,31.0,28.0,-24.1,-99.9,74,40,56,0.00,40.00,24,17,28,0.00
2014-3-22,42.0,35.5,32.0,26.0,21.8,-99.9,67,60,50,0.00,40.00,23,16,26,0.00
2014-3-23,39.0,35.6,31.0,27.0,21.3,18.0,70,57,45,0.00,40.00,18,8,21,0.00
2014-3-24,39.0,34.4,29.0,25.0,18.3,-99.9,75,63,53,0.00,40.00,8,5,11,0.00
2014-3-25,38.0,33.2,28.0,26.0,-12.5,-99.9,76,63,47,0.00,40.00,10,5,12,0.00
2014-3-26,40.0,35.6,32.0,28.0,7.0,-99.9,74,62,47,0.00,40.00,11,5,14,0.00
2014-3-27,38.0,35.7,33.0,28.0,25.2,21.0,78,66,54,0.00,40.00,13,8,18,0.00
2014-3-28,38.0,35.2,30.0,27.0,14.3,-99.9,82,66,55,0.00,40.00,9,6,13,0.00
2014-3-29,41.0,35.4,31.0,27.0,10.7,-99.9,77,56,38,0.00,40.00,15,7,17,0.00
2014-3-30,42.0,36.4,31.0,28.0,17.8,-99.9,75,57,44,0.00,40.00,11,6,13,0.00
2014-3-31,41.0,36.6,31.0,30.0,-3.3,-99.9,79,64,53,0.00,40.00,8,5,13,0.00
2014-4-1,41.0,35.7,31.0,28.0,13.6,-99.9,76,59,46,0.00,40.00,12,6,12,0.00
2014-4-2,40.0,36.5,33.0,28.0,22.3,-99.9,74,64,49,0.00,40.00,13,9,17,0.00
2014-4-3,44.0,37.7,34.0,30.0,27.2,24.0,78,66,54,0.00,40.00,14,9,16,0.00
2014-4-4,43.0,40.9,39.0,32.0,28.7,24.0,69,62,49,0.00,40.00,17,7,22,0.00
2014-4-5,44.0,40.9,39.0,35.0,31.4,-99.9,84,72,59,0.00,40.00,18,6,21,0.00
2014-4-6,45.0,40.1,37.0,35.0,32.8,29.0,89,75,57,0.00,40.00,11,6,15,0.00
2014-4-7,38.0,35.0,32.0,35.0,29.7,20.0,97,81,60,0.00,40.00,25,14,32,0.01
2014-4-8,34.0,30.2,28.0,27.0,18.3,11.0,95,62,41,0.00,40.00,27,14,35,0.00
2014-4-9,33.0,29.1,25.0,17.0,7.5,-99.9,66,44,26,0.00,40.00,17,14,21,0.00
2014-4-10,37.0,30.5,25.0,20.0,12.4,8.0,61,48,34,0.00,40.00,22,12,26,0.00
2014-4-11,43.0,36.5,31.0,27.0,22.6,14.0,69,58,33,0.00,40.00,18,9,23,0.00
2014-4-12,43.0,39.4,36.0,31.0,27.6,-99.9,80,65,56,0.00,40.00,18,8,25,0.00
2014-4-13,43.0,41.3,40.0,34.0,32.2,30.0,78,70,61,0.00,40.00,27,15,34,0.02
2014-4-14,43.0,39.3,35.0,36.0,33.2,31.0,91,79,64,0.00,40.00,14,6,18,0.00
2014-4-15,44.0,39.9,38.0,36.0,34.6,32.0,90,81,64,0.00,40.00,10,6,13,0.00
2014-4-16,43.0,39.9,37.0,38.0,36.9,36.0,95,89,78,0.00,40.00,13,5,16,0.00
2014-4-17,42.0,40.2,38.0,38.0,37.2,37.0,97,89,81,0.00,40.00,12,6,15,0.00
2014-4-18,43.0,40.2,38.0,38.0,34.3,28.0,96,80,56,0.00,40.00,20,8,25,0.00
2014-4-19,49.0,42.8,38.0,33.0,18.9,-99.9,83,55,24,0.00,40.00,18,10,22,0.00
2014-4-20,48.0,42.7,38.0,36.0,23.6,-99.9,77,69,51,0.00,40.00,19,6,22,0.00
2014-4-21,50.0,44.6,40.0,40.0,32.7,-99.9,89,73,54,0.00,40.00,12,6,15,0.00
2014-4-22,49.0,44.4,41.0,38.0,18.1,-99.9,92,73,57,0.00,40.00,13,8,19,0.00
2014-4-23,46.0,41.9,37.0,38.0,33.0,-99.9,90,75,51,0.00,40.00,10,5,14,0.00
2014-4-24,45.0,40.7,37.0,37.0,30.2,-99.9,84,70,55,0.00,40.00,17,7,21,0.00
2014-4-25,42.0,39.1,37.0,35.0,33.4,30.0,89,80,61,0.00,40.00,26,14,31,0.32
2014-4-26,45.0,41.7,39.0,35.0,32.7,-99.9,87,72,62,0.00,40.00,26,20,31,0.01
2014-4-27,47.0,42.4,39.0,40.0,38.0,35.0,93,85,74,0.00,40.00,16,5,19,0.07
2014-4-28,47.0,42.4,40.0,40.0,38.9,37.0,95,88,70,0.00,40.00,12,6,15,0.00
2014-5-13,50.0,49.0,48.0,45.0,44.3,44.0,90,84,81,0.00,40.00,10,4,13,0.00
2014-5-14,57.0,52.0,48.0,45.0,18.9,-99.9,90,62,47,0.00,40.00,17,8,22,0.00
2014-5-15,57.0,49.8,46.0,42.0,-40.6,-99.9,86,68,36,0.00,40.00,12,6,16,0.00
2014-5-16,55.0,48.6,46.0,44.0,-58.5,-99.9,85,73,50,0.00,40.00,10,6,12,0.00
2014-5-17,57.0,48.4,48.0,45.0,-64.6,-99.9,92,81,64,0.00,40.00,16,6,20,0.00
2014-5-18,54.0,49.5,47.0,43.0,36.6,-99.9,83,73,46,0.00,40.00,19,11,22,0.00
2014-5-19,54.0,48.1,45.0,37.0,17.4,-99.9,72,43,32,0.00,40.00,23,18,31,0.00
2014-5-20,55.0,49.9,46.0,38.0,29.3,24.0,65,46,35,0.00,40.00,26,11,32,0.00
2014-5-21,50.0,47.3,44.0,42.0,38.5,35.0,80,71,64,0.00,40.00,13,9,18,0.00
2014-5-22,55.0,47.5,41.0,42.0,38.7,34.0,84,72,47,0.00,40.00,12,6,15,0.00
2014-5-23,55.0,49.3,44.0,43.0,39.0,25.0,85,69,32,0.00,40.00,12,7,17,0.00
2014-5-24,60.0,51.1,46.0,43.0,38.2,-99.9,85,64,37,0.00,40.00,12,6,16,0.00
2014-5-25,53.0,49.2,45.0,44.0,41.0,38.0,85,74,57,0.00,40.00,15,8,25,0.00
2014-5-26,52.0,48.9,44.0,42.0,40.3,39.0,84,72,62,0.00,40.00,23,9,30,0.00
2014-5-27,53.0,49.9,46.0,47.0,42.4,38.0,89,76,62,0.00,40.00,23,10,30,0.11
2014-5-28,53.0,50.0,48.0,45.0,43.6,42.0,92,79,68,0.00,40.00,23,9,30,0.31
2014-5-29,53.0,51.3,49.0,45.0,42.5,41.0,86,72,66,0.00,40.00,25,14,33,0.00
2014-5-30,53.0,50.8,42.0,46.0,42.9,40.0,94,74,66,0.00,40.00,27,12,36,0.36
2014-5-31,52.0,45.6,40.0,40.0,33.0,-99.9,94,65,47,0.00,40.00,31,17,40,0.43
2014-6-1,49.0,46.6,44.0,42.0,38.3,31.0,90,73,52,0.00,40.00,22,6,30,0.20
2014-6-2,48.0,46.0,41.0,43.0,40.7,38.0,89,82,72,0.00,40.00,20,9,24,0.00
2014-6-3,52.0,47.8,43.0,44.0,37.3,-99.9,92,78,56,0.00,40.00,14,8,21,0.00
2014-6-4,56.0,50.6,45.0,47.0,36.5,-99.9,89,75,49,0.00,40.00,14,7,18,0.00
2014-6-5,55.0,51.1,49.0,42.0,38.7,34.0,72,63,48,0.00,40.00,14,8,18,0.00
2014-6-10,51.0,49.6,48.0,41.0,36.1,33.0,72,60,51,0.00,40.00,19,13,23,0.00
2014-6-11,51.0,49.0,46.0,43.0,38.1,34.0,76,66,54,0.00,40.00,16,9,20,0.00
2014-6-12,51.0,49.4,48.0,43.0,41.9,39.0,82,75,66,0.00,40.00,16,8,19,0.00
2014-6-13,50.0,48.1,46.0,48.0,43.1,39.0,94,83,70,0.00,40.00,13,5,19,0.28
2014-6-14,54.0,50.0,46.0,47.0,44.2,-99.9,93,83,74,0.00,40.00,14,9,19,0.00
2014-6-15,53.0,50.9,49.0,47.0,45.2,44.0,91,81,76,0.00,40.00,11,6,16,0.01
2014-6-16,53.0,50.3,47.0,47.0,42.6,39.0,89,75,68,0.00,40.00,30,12,37,0.10
2014-6-17,52.0,49.9,47.0,46.0,44.2,41.0,92,81,72,0.00,40.00,30,9,36,0.06
2014-6-18,54.0,50.3,46.0,47.0,44.2,41.0,92,80,62,0.00,40.00,16,8,20,0.00
2014-6-19,58.0,51.9,48.0,46.0,43.4,40.0,88,73,50,0.00,40.00,15,9,20,0.00
2014-6-20,55.0,50.6,47.0,47.0,44.7,42.0,91,80,64,0.00,40.00,19,10,24,0.00
2014-6-21,54.0,50.5,48.0,48.0,43.2,-99.9,90,78,63,0.00,40.00,15,8,18,0.16
2014-6-22,55.0,49.7,48.0,48.0,45.3,43.0,89,85,67,0.00,40.00,13,8,17,0.00
2014-6-23,54.0,50.5,48.0,49.0,47.6,45.0,97,90,75,0.00,40.00,13,5,18,0.07
2014-6-24,57.0,51.9,48.0,49.0,46.6,43.0,93,83,60,0.00,40.00,12,7,17,0.01
2014-6-25,59.0,54.5,51.0,48.0,45.8,42.0,89,73,54,0.00,40.00,16,7,20,0.00
2014-6-26,55.0,52.3,50.0,49.0,45.6,42.0,90,78,65,0.00,40.00,11,4,14,0.02
2014-6-27,56.0,52.5,50.0,49.0,47.4,46.0,91,83,73,0.00,40.00,12,6,15,0.00
2014-6-28,59.0,53.1,50.0,51.0,47.1,-99.9,96,83,67,0.00,40.00,14,7,19,0.00
2014-6-29,62.0,55.5,52.0,51.0,47.9,44.0,93,76,52,0.00,40.00,13,8,18,0.00
2014-6-30,58.0,53.4,51.0,51.0,49.0,47.0,94,85,70,0.00,40.00,13,7,18,0.01
2014-7-1,55.0,52.3,49.0,50.0,49.0,48.0,96,88,77,0.00,40.00,14,7,18,0.00
2014-7-2,52.0,51.3,51.0,49.0,48.3,47.0,93,89,83,0.00,40.00,8,5,9,0.00
2014-7-4,59.0,57.0,55.0,54.0,52.5,51.0,93,85,82,0.00,40.00,11,7,14,0.00
2014-7-5,65.0,58.0,54.0,53.0,50.2,-99.9,94,78,63,0.00,40.00,12,6,16,0.00
2014-7-6,59.0,56.7,54.0,52.0,50.6,49.0,90,80,70,0.00,40.00,12,7,17,0.03
2014-7-7,61.0,57.1,54.0,53.0,49.6,47.0,93,76,60,0.00,40.00,16,5,20,0.02
2014-7-8,59.0,56.2,53.0,52.0,49.9,47.0,89,80,72,0.00,40.00,13,6,18,0.00
2014-7-9,59.0,56.1,54.0,51.0,49.2,47.0,87,78,64,0.00,40.00,16,7,21,0.11
2014-7-10,59.0,56.5,54.0,53.0,49.8,46.0,94,79,66,0.00,40.00,20,8,26,0.12
2014-7-11,61.0,56.0,52.0,52.0,51.3,47.0,97,85,68,0.00,40.00,14,5,19,0.03
2014-7-12,56.0,53.4,52.0,48.0,44.7,44.0,86,72,62,0.00,40.00,18,8,23,0.06
2014-7-13,60.0,53.8,50.0,49.0,47.8,46.0,91,81,61,0.00,40.00,9,6,11,0.14
2014-7-14,57.0,54.7,51.0,50.0,48.5,45.0,90,80,66,0.00,40.00,11,6,16,0.00
2014-7-15,59.0,54.8,50.0,50.0,48.2,46.0,92,78,68,0.00,40.00,14,8,19,0.00
2014-7-16,58.0,54.9,50.0,50.0,48.3,46.0,91,78,68,0.00,40.00,14,7,19,0.00
2014-7-17,59.0,55.5,53.0,51.0,50.0,48.0,94,82,74,0.00,40.00,14,5,18,0.00
2014-7-18,61.0,56.1,53.0,51.0,49.3,47.0,92,78,61,0.00,40.00,14,6,17,0.00
2014-7-19,59.0,56.2,52.0,51.0,48.5,46.0,85,76,65,0.00,40.00,27,15,33,0.05
2014-7-20,66.0,55.8,51.0,49.0,46.1,41.0,86,72,40,0.00,40.00,20,12,33,0.00
2014-7-21,59.0,55.7,51.0,51.0,48.6,45.0,87,77,64,0.00,40.00,14,6,17,0.00
2014-7-22,58.0,54.4,52.0,52.0,49.8,46.0,92,85,67,0.00,40.00,16,7,21,0.00
2014-7-23,58.0,54.7,52.0,53.0,51.6,51.0,98,89,78,0.00,40.00,12,6,15,0.11
2014-7-24,58.0,54.6,53.0,52.0,51.2,49.0,96,88,79,0.00,40.00,14,7,19,0.16
2014-7-25,57.0,54.5,52.0,53.0,51.9,51.0,97,91,83,0.00,40.00,7,4,10,0.10
2014-7-26,58.0,53.8,52.0,53.0,51.2,50.0,97,90,79,0.00,40.00,14,7,19,0.18
2014-7-27,58.0,54.8,50.0,52.0,49.8,47.0,96,83,67,0.00,40.00,16,10,20,0.00
2014-7-28,59.0,54.3,52.0,53.0,50.6,47.0,96,88,71,0.00,40.00,14,7,18,0.37
2014-7-29,62.0,55.8,51.0,53.0,50.6,48.0,90,83,66,0.00,40.00,17,10,20,0.04
2014-7-30,61.0,57.0,54.0,54.0,52.2,50.0,92,84,73,0.00,40.00,14,8,18,0.00
2014-7-31,59.0,54.7,51.0,54.0,49.7,50.0,99,89,82,0.00,40.00,11,6,16,0.00
2014-8-1,61.0,56.2,50.0,52.0,49.6,48.0,95,80,64,0.00,40.00,12,6,17,0.00
2014-8-2,60.0,55.9,51.0,53.0,50.7,47.0,90,83,70,0.00,40.00,17,7,19,0.00
2014-8-3,60.0,56.3,53.0,55.0,53.2,52.0,96,89,76,0.00,40.00,14,4,18,0.13
2014-8-4,57.0,53.9,52.0,54.0,51.6,48.0,95,91,84,0.00,40.00,6,3,9,0.14
2014-8-5,60.0,56.3,53.0,54.0,51.0,46.0,97,83,69,0.00,40.00,15,6,19,0.05
2014-8-6,57.0,55.1,53.0,54.0,52.5,51.0,96,91,83,0.00,40.00,10,6,14,0.00
2014-8-7,60.0,56.6,54.0,54.0,50.3,47.0,96,80,65,0.00,40.00,16,7,22,0.00
2014-8-8,59.0,57.5,56.0,54.0,52.1,48.0,93,83,67,0.00,40.00,14,6,15,0.24
2014-8-9,59.0,56.4,53.0,55.0,52.2,50.0,94,86,75,0.00,40.00,12,6,15,0.04
2014-8-10,60.0,55.9,53.0,55.0,52.0,50.0,95,87,71,0.00,40.00,7,3,9,0.07
2014-8-11,59.0,56.3,54.0,53.0,51.0,49.0,97,83,70,0.00,40.00,17,7,24,0.06
2014-8-12,60.0,56.7,54.0,51.0,49.8,48.0,86,78,69,0.00,40.00,14,6,16,0.07
2014-8-13,61.0,56.2,53.0,53.0,50.2,50.0,98,82,69,0.00,40.00,18,6,22,0.34
2014-8-14,58.0,55.0,51.0,53.0,50.3,48.0,97,85,71,0.00,40.00,17,5,21,0.29
2014-8-15,59.0,53.5,50.0,51.0,49.0,48.0,96,85,65,0.00,40.00,12,7,16,0.12
2014-8-16,63.0,57.3,53.0,51.0,48.8,45.0,87,74,57,0.00,40.00,18,8,24,0.07
2014-8-17,57.0,54.7,51.0,53.0,51.6,49.0,95,90,78,0.00,40.00,11,5,16,0.01
2014-8-18,61.0,57.8,54.0,52.0,51.1,50.0,92,78,71,0.00,40.00,13,9,19,0.00
2014-8-19,59.0,55.0,51.0,54.0,51.4,48.0,92,87,74,0.00,40.00,15,8,19,0.00
2014-8-20,57.0,53.7,50.0,53.0,50.0,49.0,97,92,82,0.00,40.00,14,5,17,0.00
2014-8-21,57.0,54.5,52.0,54.0,51.8,49.0,97,91,83,0.00,40.00,12,8,15,0.00
2014-8-22,58.0,54.4,52.0,53.0,51.3,50.0,96,90,78,0.00,40.00,14,7,19,0.00
2014-8-23,56.0,52.9,50.0,52.0,50.2,48.0,99,90,73,0.00,40.00,13,7,15,0.10
2014-8-24,58.0,55.2,54.0,53.0,51.1,48.0,97,87,73,0.00,40.00,10,4,14,0.36
2014-8-25,56.0,53.9,52.0,53.0,51.4,50.0,98,91,82,0.00,40.00,10,5,13,0.23
2014-8-26,57.0,54.0,51.0,53.0,51.3,49.0,98,91,86,0.00,40.00,8,5,10,0.22
2014-8-27,59.0,55.4,53.0,52.0,49.2,46.0,93,80,64,0.00,40.00,23,8,30,0.00
2014-8-28,56.0,54.6,53.0,53.0,49.6,47.0,96,83,75,0.00,40.00,20,9,24,0.31
2014-8-29,58.0,53.9,51.0,52.0,49.5,47.0,96,85,73,0.00,40.00,13,7,18,0.00
2014-8-30,58.0,51.9,47.0,50.0,44.8,44.0,93,79,62,0.00,40.00,12,7,13,0.00
2014-8-31,55.0,52.2,47.0,50.0,46.4,43.0,90,81,70,0.00,40.00,19,8,22,0.00
2014-9-1,57.0,51.8,46.0,50.0,40.5,43.0,91,80,71,0.00,40.00,24,9,34,0.00
2014-9-2,58.0,56.7,55.0,51.0,50.0,49.0,82,78,73,0.00,40.00,24,17,33,0.00
2014-9-3,59.0,55.5,51.0,54.0,50.7,47.0,90,84,76,0.00,40.00,13,6,19,0.00
2014-9-4,58.0,55.2,53.0,53.0,51.9,51.0,94,89,79,0.00,40.00,12,5,15,0.45
2014-9-5,56.0,53.8,52.0,54.0,52.0,50.0,98,94,90,0.00,40.00,13,5,15,0.12
2014-9-6,58.0,54.3,51.0,54.0,50.7,49.0,98,87,76,0.00,40.00,11,6,14,0.00
2014-9-7,56.0,52.7,50.0,52.0,39.3,46.0,95,85,70,0.00,40.00,13,6,16,0.00
2014-9-8,59.0,54.5,52.0,51.0,48.5,47.0,88,80,69,0.00,40.00,9,5,11,0.01
2014-9-9,58.0,56.1,55.0,52.0,50.5,49.0,88,81,71,0.00,40.00,9,5,14,0.11
2014-9-10,58.0,55.4,53.0,52.0,51.0,49.0,92,85,72,0.00,40.00,7,4,10,0.01
2014-9-11,58.0,54.8,51.0,50.0,47.6,44.0,92,78,60,0.00,40.00,12,6,16,0.02
2014-9-12,62.0,59.8,58.0,54.0,51.0,46.0,84,73,61,0.00,40.00,21,10,26,0.30
2014-9-13,59.0,55.6,53.0,54.0,47.7,45.0,88,74,62,0.00,40.00,20,10,25,0.00
2014-9-14,57.0,54.8,53.0,47.0,46.3,44.0,79,73,65,0.00,40.00,25,12,33,0.17
2014-9-15,56.0,52.2,50.0,50.0,47.5,44.0,93,84,65,0.00,40.00,18,7,23,0.39
2014-9-16,55.0,51.4,49.0,49.0,46.3,43.0,95,83,67,0.00,40.00,17,7,22,0.04
2014-9-17,56.0,52.5,51.0,46.0,44.0,42.0,83,73,64,0.00,40.00,19,10,25,0.09
2014-9-18,52.0,49.0,47.0,48.0,45.8,42.0,95,88,67,0.00,40.00,24,6,27,0.21
2014-9-19,55.0,50.4,48.0,49.0,47.9,47.0,98,92,74,0.00,40.00,8,4,11,0.25
2014-9-20,54.0,50.5,47.0,49.0,45.5,43.0,95,82,65,0.00,40.00,10,6,12,0.00
2014-9-21,52.0,47.3,43.0,47.0,43.8,41.0,93,87,76,0.00,40.00,11,6,14,0.00
2014-9-22,52.0,48.2,44.0,43.0,35.1,30.0,83,63,44,0.00,40.00,15,7,18,0.00
2014-9-23,53.0,48.6,45.0,45.0,40.9,38.0,86,78,67,0.00,40.00,10,6,12,0.00
2014-9-24,56.0,50.0,44.0,44.0,35.9,35.0,88,73,45,0.00,40.00,12,5,14,0.00
2014-9-25,53.0,48.6,44.0,43.0,30.1,34.0,88,74,51,0.00,40.00,12,6,13,0.00
2014-9-26,55.0,49.6,45.0,41.0,32.5,36.0,86,66,49,0.00,40.00,11,5,13,0.00
2014-9-27,50.0,47.6,46.0,45.0,40.1,36.0,86,74,62,0.00,40.00,13,7,16,0.01
2014-9-28,53.0,48.8,45.0,44.0,32.2,38.0,92,78,59,0.00,40.00,12,5,16,0.00
2014-9-29,53.0,48.7,45.0,44.0,29.0,28.0,86,62,42,0.00,40.00,27,10,34,0.00
2014-9-30,51.0,47.1,43.0,34.0,22.2,17.0,76,52,27,0.00,40.00,12,6,27,0.00
2014-10-1,50.0,45.4,40.0,38.0,22.4,28.0,76,61,49,0.00,40.00,14,5,17,0.00
2014-10-2,52.0,47.7,42.0,39.0,34.9,32.0,76,62,50,0.00,40.00,18,12,23,0.00
2014-10-3,50.0,46.7,44.0,38.0,31.8,24.0,68,56,37,0.00,40.00,18,10,25,0.00
2014-10-4,46.0,43.4,42.0,38.0,34.4,32.0,83,69,62,0.00,40.00,19,11,28,0.00
2014-10-5,42.0,40.6,39.0,38.0,31.5,23.0,84,70,48,0.00,40.00,14,10,21,0.01
2014-10-6,44.0,41.0,39.0,28.0,22.4,20.0,61,49,39,0.00,40.00,15,9,19,0.00
2014-10-7,42.0,39.7,37.0,27.0,20.7,18.0,72,50,38,0.00,40.00,15,12,19,0.00
2014-10-11,43.0,40.9,40.0,41.0,33.3,29.0,94,74,61,0.00,40.00,22,16,28,0.03
2014-10-12,45.0,42.2,40.0,40.0,35.4,29.0,84,77,60,0.00,40.00,30,16,33,0.00
2014-10-13,49.0,45.5,43.0,40.0,37.8,35.0,82,74,65,0.00,40.00,28,12,33,0.00
2014-10-14,45.0,43.7,42.0,39.0,33.8,31.0,84,72,58,0.00,40.00,11,6,15,0.00
2014-10-15,42.0,40.3,39.0,36.0,33.5,34.0,88,82,76,0.00,40.00,9,5,12,0.00
2014-10-20,39.0,39.0,39.0,31.0,31.0,31.0,75,75,75,0.00,40.00,12,12,17,0.00
2014-11-6,46.0,43.0,41.0,36.0,35.2,34.0,83,73,66,0.00,40.00,28,21,36,0.00
2014-11-7,47.0,43.5,42.0,40.0,36.9,34.0,92,78,61,0.00,40.00,32,17,44,0.28
2014-11-8,45.0,43.3,42.0,41.0,38.5,35.0,89,83,70,0.00,40.00,18,10,23,0.17
2014-11-9,48.0,45.6,44.0,42.0,37.7,34.0,86,74,62,0.00,40.00,34,21,42,0.29
2014-11-10,48.0,46.9,45.0,41.0,36.3,32.0,78,66,55,0.00,40.00,23,14,30,0.01
2014-11-11,51.0,47.8,45.0,42.0,39.8,37.0,82,74,62,0.00,40.00,27,14,44,0.45
2014-11-12,51.0,49.4,49.0,39.0,36.7,35.0,68,60,53,0.00,40.00,24,16,41,0.00
2014-11-13,49.0,46.8,42.0,38.0,36.1,34.0,84,67,61,0.00,40.00,19,8,22,0.00
2014-11-14,49.0,45.1,42.0,38.0,34.9,33.0,84,67,56,0.00,40.00,12,6,16,0.00
2014-11-15,48.0,45.3,42.0,37.0,34.4,30.0,77,65,50,0.00,40.00,24,10,29,0.00
2014-11-16,48.0,46.2,43.0,39.0,36.8,35.0,81,69,61,0.00,40.00,24,14,31,0.01
2014-11-17,50.0,44.4,42.0,41.0,39.7,38.0,92,84,64,0.00,40.00,19,8,23,0.00
2014-11-18,50.0,47.8,45.0,39.0,37.4,33.0,76,67,56,0.00,40.00,37,25,56,0.08
2014-11-19,46.0,43.7,42.0,37.0,34.3,29.0,80,70,56,0.00,40.00,29,10,39,0.02
2014-11-20,46.0,44.1,42.0,40.0,36.9,34.0,90,75,65,0.00,40.00,27,17,36,0.18
2014-11-21,45.0,42.2,38.0,38.0,36.5,34.0,93,80,69,0.00,40.00,26,14,34,0.05
2014-11-22,42.0,38.9,37.0,38.0,35.3,34.0,92,86,78,0.00,40.00,15,7,18,0.02
2014-11-23,42.0,39.5,37.0,37.0,35.4,34.0,93,85,79,0.00,40.00,15,10,18,0.00
2014-11-24,40.0,39.2,37.0,37.0,35.1,34.0,92,89,85,0.00,40.00,15,8,17,0.01
2014-11-25,41.0,38.1,36.0,36.0,34.3,32.0,94,86,79,0.00,40.00,10,5,12,0.00
2014-11-26,39.0,35.6,32.0,35.0,31.4,27.0,88,84,80,0.00,40.00,23,15,27,0.00
2014-11-27,34.0,32.3,31.0,28.0,25.1,23.0,84,74,67,0.00,40.00,20,16,23,0.00
2014-11-28,37.0,35.9,33.0,33.0,31.6,28.0,93,85,78,0.00,40.00,18,12,20,0.00
2014-11-29,36.0,34.8,34.0,35.0,31.0,30.0,95,89,81,0.00,40.00,18,9,20,0.05
2014-11-30,34.0,31.9,30.0,29.0,22.3,26.0,99,84,78,0.00,40.00,18,14,21,0.00
2014-12-1,43.0,35.3,30.0,35.0,32.2,29.0,100,89,70,0.00,40.00,21,14,26,0.03
2014-12-2,42.0,41.0,39.0,36.0,30.8,25.0,82,67,53,0.00,40.00,16,10,21,0.02
2014-12-3,40.0,38.4,37.0,34.0,32.6,28.0,88,79,62,0.00,40.00,13,9,16,0.04
2014-12-4,43.0,40.8,38.0,36.0,35.2,33.0,90,81,68,0.00,40.00,17,8,21,0.12
2014-12-5,44.0,42.6,41.0,36.0,33.9,32.0,76,71,67,0.00,40.00,23,15,28,0.00
2014-12-16,39.0,38.2,37.0,36.0,34.9,32.0,95,87,77,0.00,40.00,15,8,20,0.10
2014-12-17,39.0,36.6,35.0,34.0,32.2,31.0,91,84,73,0.00,40.00,15,9,20,0.00
2014-12-18,39.0,37.2,35.0,33.0,29.9,23.0,83,75,59,0.00,40.00,28,24,32,0.00
2014-12-19,43.0,38.8,35.0,33.0,30.2,23.0,79,71,58,0.00,40.00,26,19,31,0.00
2014-12-20,41.0,36.3,35.0,32.0,27.8,26.0,78,71,67,0.00,40.00,26,20,31,0.00
2014-12-21,36.0,35.5,35.0,31.0,28.4,26.0,85,75,68,0.00,40.00,16,11,18,0.00
2014-12-22,35.0,34.2,33.0,33.0,31.5,30.0,96,90,84,0.00,40.00,12,9,15,0.02
2014-12-23,35.0,32.3,31.0,33.0,30.8,28.0,97,94,88,0.00,40.00,12,7,15,0.00
2014-12-24,41.0,37.9,32.0,34.0,30.9,27.0,89,76,59,0.00,40.00,16,8,19,0.00
2014-12-25,42.0,39.5,37.0,35.0,32.3,28.0,89,75,61,0.00,40.00,28,12,37,0.04
2014-12-26,42.0,39.8,37.0,34.0,31.4,28.0,86,71,66,0.00,40.00,19,12,26,0.00
2014-12-27,40.0,36.9,33.0,34.0,28.8,30.0,88,79,68,0.00,40.00,21,11,24,0.00
2014-12-28,44.0,42.0,35.0,36.0,31.9,28.0,87,69,55,0.00,40.00,26,14,36,0.08
2014-12-29,43.0,41.4,40.0,36.0,35.3,34.0,84,79,68,0.00,40.00,27,20,37,1.08
2014-12-30,46.0,44.8,43.0,38.0,36.4,34.0,77,72,66,0.00,40.00,27,14,34,0.02
2014-12-31,46.0,43.0,38.0,37.0,34.6,31.0,85,72,62,0.00,40.00,12,8,20,0.01
2015-1-1,39.0,37.0,36.0,35.0,29.9,25.0,86,75,61,0.00,40.00,15,8,20,0.00
2015-1-2,38.0,34.3,32.0,30.0,24.7,20.0,84,73,57,0.00,40.00,20,11,22,0.00